createdAt,value
2022-12-18T09:08:38.549Z,28
2022-12-18T09:11:01.429Z,30
2022-12-18T09:13:28.207Z,36
2022-12-18T09:15:56.386Z,36
2022-12-18T09:18:24.572Z,40
2022-12-18T09:20:53.084Z,36
2022-12-18T09:25:51.876Z,40
2022-12-18T09:28:20.758Z,40
2022-12-18T09:30:50.353Z,38
2022-12-18T09:33:19.268Z,40
2022-12-18T09:35:48.477Z,40
2022-12-18T09:38:17.988Z,40
2022-12-18T09:40:46.816Z,36
2022-12-18T09:43:16.228Z,38
2022-12-18T09:45:45.631Z,38
2022-12-18T09:48:14.660Z,40
2022-12-18T09:50:44.104Z,40
2022-12-18T09:53:13.002Z,40
2022-12-18T09:55:42.241Z,38
2022-12-18T09:58:11.534Z,36
2022-12-18T10:00:40.509Z,36
2022-12-18T10:03:09.967Z,36
2022-12-18T10:05:39.203Z,40
2022-12-18T10:08:08.272Z,41
2022-12-18T10:10:37.253Z,39
2022-12-18T10:13:06.673Z,40
2022-12-18T10:15:36.015Z,41
2022-12-18T10:18:05.467Z,40
2022-12-18T10:20:34.600Z,40
2022-12-18T10:23:04.816Z,36
2022-12-18T10:25:34.025Z,40
2022-12-18T10:28:03.258Z,36
2022-12-18T10:30:32.338Z,37
2022-12-18T10:33:02.270Z,36
2022-12-18T10:35:31.551Z,36
2022-12-18T10:38:00.702Z,39
2022-12-18T10:40:29.779Z,36
2022-12-18T10:42:59.131Z,36
2022-12-18T10:45:29.374Z,39
2022-12-18T10:47:58.378Z,40
2022-12-18T10:50:40.907Z,38
2022-12-18T10:52:57.830Z,40
2022-12-18T10:55:27.844Z,39
2022-12-18T10:58:01.213Z,34
2022-12-18T11:00:32.590Z,36
2022-12-18T11:03:01.670Z,40
2022-12-18T11:05:37.833Z,39
2022-12-18T11:08:06.404Z,36
2022-12-18T11:10:36.230Z,37
2022-12-18T11:13:05.064Z,40
2022-12-18T11:15:34.583Z,39
2022-12-18T11:18:03.007Z,40
2022-12-18T11:20:32.745Z,36
2022-12-18T11:23:01.897Z,40
2022-12-18T11:25:32.245Z,43
2022-12-18T11:27:59.383Z,40
2022-12-18T11:30:28.439Z,43
2022-12-18T11:32:57.422Z,46
2022-12-18T11:35:26.219Z,44
2022-12-18T11:37:55.289Z,40
2022-12-18T11:40:24.387Z,48
2022-12-18T11:42:53.501Z,40
2022-12-18T11:45:22.389Z,43
2022-12-18T11:47:51.207Z,42
2022-12-18T11:50:20.101Z,40
2022-12-18T11:52:52.841Z,39
2022-12-18T11:55:18.614Z,40
2022-12-18T11:57:47.834Z,40
2022-12-18T12:00:22.739Z,43
2022-12-18T12:02:46.679Z,40
2022-12-18T12:05:15.334Z,40
2022-12-18T12:07:44.561Z,40
2022-12-18T12:10:13.637Z,37
2022-12-18T12:12:48.000Z,38
2022-12-18T12:15:12.175Z,40
2022-12-18T12:17:41.345Z,40
2022-12-18T12:20:10.805Z,40
2022-12-18T12:22:39.760Z,40
2022-12-18T12:25:08.802Z,44
2022-12-18T12:27:37.884Z,44
2022-12-18T12:30:07.132Z,49
2022-12-18T12:32:35.754Z,44
2022-12-18T12:35:09.574Z,44
2022-12-18T12:37:34.284Z,44
2022-12-18T12:40:11.129Z,44
2022-12-18T12:42:32.458Z,42
2022-12-18T12:45:01.580Z,45
2022-12-18T12:47:30.581Z,43
2022-12-18T12:49:59.930Z,39
2022-12-18T12:52:29.753Z,40
2022-12-18T12:54:59.302Z,44
2022-12-18T12:57:28.616Z,40
2022-12-18T12:59:57.097Z,44
2022-12-18T13:02:26.240Z,45
2022-12-18T13:04:55.293Z,44
2022-12-18T13:07:24.209Z,42
2022-12-18T13:09:53.483Z,54
2022-12-18T13:12:22.695Z,40
2022-12-18T13:14:51.873Z,50
2022-12-18T13:17:20.925Z,44
2022-12-18T13:19:49.912Z,51
2022-12-18T13:22:18.901Z,65
2022-12-18T13:24:48.467Z,40
2022-12-18T13:27:17.049Z,40
2022-12-18T13:29:46.161Z,41
2022-12-18T13:32:19.670Z,44
2022-12-18T13:34:44.894Z,44
2022-12-18T13:37:14.634Z,43
2022-12-18T13:39:44.110Z,44
2022-12-18T13:42:13.256Z,40
2022-12-18T13:44:42.206Z,41
2022-12-18T13:47:11.537Z,40
2022-12-18T13:49:40.519Z,40
2022-12-18T13:52:09.990Z,44
2022-12-18T13:54:39.350Z,44
2022-12-18T13:57:07.941Z,40
2022-12-18T13:59:36.917Z,44
2022-12-18T14:02:05.888Z,48
2022-12-18T14:04:35.342Z,48
2022-12-18T14:07:04.308Z,48
2022-12-18T14:09:33.264Z,51
2022-12-18T14:12:01.974Z,40
2022-12-18T14:14:33.544Z,44
2022-12-18T14:17:00.348Z,44
2022-12-18T14:19:29.262Z,44
2022-12-18T14:21:58.376Z,44
2022-12-18T14:24:27.502Z,44
2022-12-18T14:26:56.326Z,44
2022-12-18T14:29:25.350Z,40
2022-12-18T14:31:55.295Z,46
2022-12-18T14:34:23.922Z,44
2022-12-18T14:36:53.216Z,48
2022-12-18T14:39:22.869Z,40
2022-12-18T14:41:52.337Z,47
2022-12-18T14:44:21.231Z,43
2022-12-18T14:46:50.692Z,41
2022-12-18T14:49:19.724Z,40
2022-12-18T14:51:49.481Z,44
2022-12-18T14:54:18.484Z,40
2022-12-18T14:56:47.608Z,44
2022-12-18T14:59:20.740Z,63
2022-12-18T15:01:45.642Z,44
2022-12-18T15:04:15.241Z,50
2022-12-18T15:06:44.672Z,54
2022-12-18T15:09:13.917Z,53
2022-12-18T15:11:43.267Z,81
2022-12-18T15:14:12.982Z,65
2022-12-18T15:16:46.064Z,47
2022-12-18T15:19:11.065Z,44
2022-12-18T15:21:40.229Z,49
2022-12-18T15:24:09.449Z,66
2022-12-18T15:26:38.536Z,66
2022-12-18T15:29:11.362Z,43
2022-12-18T15:31:37.192Z,48
2022-12-18T15:34:06.510Z,49
2022-12-18T15:36:35.481Z,48
2022-12-18T15:39:06.721Z,48
2022-12-18T15:41:33.571Z,38
2022-12-18T15:44:02.851Z,44
2022-12-18T15:46:32.483Z,40
2022-12-18T15:49:02.830Z,40
2022-12-18T15:51:30.560Z,44
2022-12-18T15:53:59.796Z,48
2022-12-18T15:56:28.876Z,52
2022-12-18T15:58:57.956Z,52
2022-12-18T16:01:27.442Z,46
2022-12-18T16:03:56.434Z,44
2022-12-18T16:06:26.189Z,47
2022-12-18T16:08:55.903Z,44
2022-12-18T16:11:25.039Z,42
2022-12-18T16:13:54.335Z,43
2022-12-18T16:16:23.547Z,48
2022-12-18T16:18:52.818Z,45
2022-12-18T16:21:21.952Z,42
2022-12-18T16:23:51.423Z,41
2022-12-18T16:26:19.920Z,45
2022-12-18T16:28:49.509Z,44
2022-12-18T16:31:18.252Z,44
2022-12-18T16:33:47.343Z,42
2022-12-18T16:36:16.534Z,40
2022-12-18T16:38:45.587Z,44
2022-12-18T16:41:15.077Z,44
2022-12-18T16:43:44.192Z,47
2022-12-18T16:46:13.771Z,44
2022-12-18T16:48:42.874Z,44
2022-12-18T16:51:12.335Z,44
2022-12-18T16:53:41.787Z,47
2022-12-18T16:56:10.297Z,47
2022-12-18T16:58:39.870Z,38
2022-12-18T17:01:09.298Z,44
2022-12-18T17:03:38.658Z,46
2022-12-18T17:08:36.746Z,48
2022-12-18T17:11:05.903Z,54
2022-12-18T17:13:34.937Z,59
2022-12-18T17:16:04.344Z,55
2022-12-18T17:18:33.233Z,56
2022-12-18T17:21:02.429Z,60
2022-12-18T17:23:31.011Z,53
2022-12-18T17:25:59.947Z,56
2022-12-18T17:28:33.485Z,59
2022-12-18T17:31:03.194Z,67
2022-12-18T17:33:32.610Z,62
2022-12-18T17:36:01.382Z,57
2022-12-18T17:38:30.330Z,56
2022-12-18T17:40:59.245Z,48
2022-12-18T17:43:28.085Z,51
2022-12-18T17:45:56.681Z,48
2022-12-18T17:48:25.932Z,46
2022-12-18T17:50:55.323Z,48
2022-12-18T17:53:24.556Z,44
2022-12-18T17:55:53.988Z,44
2022-12-18T17:58:23.203Z,43
2022-12-18T18:00:52.097Z,44
2022-12-18T18:03:21.720Z,39
2022-12-18T18:05:52.380Z,36
2022-12-18T18:08:21.201Z,38
2022-12-18T18:10:50.576Z,38
2022-12-18T18:13:19.558Z,40
2022-12-18T18:15:49.253Z,44
2022-12-18T18:18:19.166Z,48
2022-12-18T18:20:48.741Z,52
2022-12-18T18:23:17.594Z,52
2022-12-18T18:25:46.768Z,45
2022-12-18T18:28:15.677Z,40
2022-12-18T18:30:44.264Z,40
2022-12-18T18:33:13.627Z,44
2022-12-18T18:35:53.636Z,40
2022-12-18T18:38:11.876Z,47
2022-12-18T18:40:40.915Z,48
2022-12-18T18:43:10.342Z,53
2022-12-18T18:45:39.083Z,44
2022-12-18T18:48:08.002Z,44
2022-12-18T18:50:37.125Z,44
2022-12-18T18:53:06.866Z,48
2022-12-18T18:55:35.734Z,48
2022-12-18T18:58:05.156Z,47
2022-12-18T19:00:34.721Z,49
2022-12-18T19:03:03.973Z,47
2022-12-18T19:05:32.476Z,44
2022-12-18T19:08:01.592Z,48
2022-12-18T19:10:30.631Z,49
2022-12-18T19:12:59.680Z,46
2022-12-18T19:15:28.718Z,44
2022-12-18T19:17:57.824Z,48
2022-12-18T19:20:26.701Z,50
2022-12-18T19:22:56.109Z,48
2022-12-18T19:25:28.334Z,44
2022-12-18T19:27:52.773Z,46
2022-12-18T19:30:21.652Z,48
2022-12-18T19:32:50.662Z,52
2022-12-18T19:35:20.120Z,54
2022-12-18T19:37:49.428Z,60
2022-12-18T19:40:18.352Z,48
2022-12-18T19:42:47.540Z,56
2022-12-18T19:45:16.033Z,60
2022-12-18T19:47:44.823Z,54
2022-12-18T19:50:13.980Z,53
2022-12-18T19:52:43.596Z,54
2022-12-18T19:55:12.054Z,54
2022-12-18T19:57:40.911Z,51
2022-12-18T20:00:12.869Z,59
2022-12-18T20:02:39.102Z,60
2022-12-18T20:05:07.741Z,57
2022-12-18T20:07:36.810Z,53
2022-12-18T20:10:09.035Z,58
2022-12-18T20:12:34.813Z,60
2022-12-18T20:15:04.181Z,71
2022-12-18T20:17:33.021Z,63
2022-12-18T20:20:02.263Z,62
2022-12-18T20:22:31.227Z,64
2022-12-18T20:25:00.566Z,59
2022-12-18T20:27:29.427Z,62
2022-12-18T20:29:58.464Z,57
2022-12-18T20:32:30.480Z,66
2022-12-18T20:34:57.430Z,64
2022-12-18T20:37:26.011Z,64
2022-12-18T20:39:55.526Z,68
2022-12-18T20:42:24.762Z,60
2022-12-18T20:44:54.407Z,68
2022-12-18T20:47:23.749Z,70
2022-12-18T20:49:52.866Z,70
2022-12-18T20:52:21.402Z,73
2022-12-18T20:54:50.208Z,73
2022-12-18T20:57:19.367Z,74
2022-12-18T20:59:48.640Z,72
2022-12-18T21:02:17.847Z,66
2022-12-18T21:04:46.794Z,63
2022-12-18T21:07:15.579Z,64
2022-12-18T21:09:44.743Z,64
2022-12-18T21:12:14.248Z,69
2022-12-18T21:14:42.746Z,65
2022-12-18T21:17:11.500Z,70
2022-12-18T21:19:41.122Z,64
2022-12-18T21:22:10.117Z,65
2022-12-18T21:24:39.541Z,66
2022-12-18T21:27:08.634Z,60
2022-12-18T21:29:37.565Z,63
2022-12-18T21:32:06.481Z,64
2022-12-18T21:34:35.681Z,64
2022-12-18T21:37:13.367Z,64
2022-12-18T21:39:36.678Z,61
2022-12-18T21:42:05.083Z,66
2022-12-18T21:44:35.759Z,64
2022-12-18T21:47:12.088Z,74
2022-12-18T21:49:32.279Z,60
2022-12-18T21:52:01.527Z,48
2022-12-18T21:54:30.612Z,56
2022-12-18T21:56:59.425Z,62
2022-12-18T21:59:28.477Z,59
2022-12-18T22:01:57.708Z,62
2022-12-18T22:04:26.472Z,60
2022-12-18T22:06:55.494Z,73
2022-12-18T22:09:24.600Z,64
2022-12-18T22:11:53.860Z,68
2022-12-18T22:14:22.662Z,60
2022-12-18T22:16:51.905Z,52
2022-12-18T22:19:21.019Z,58
2022-12-18T22:21:49.536Z,60
2022-12-18T22:24:18.758Z,52
2022-12-18T22:26:47.918Z,46
2022-12-18T22:29:16.961Z,44
2022-12-18T22:31:46.064Z,42
2022-12-18T22:34:15.008Z,48
2022-12-18T22:36:44.026Z,50
2022-12-18T22:39:13.257Z,50
2022-12-18T22:41:42.221Z,48
2022-12-18T22:44:11.590Z,51
2022-12-18T22:46:40.404Z,54
2022-12-18T22:49:09.810Z,53
2022-12-18T22:51:38.624Z,52
2022-12-18T22:54:07.781Z,55
2022-12-18T22:56:37.067Z,61
2022-12-18T22:59:06.184Z,56
2022-12-18T23:01:35.408Z,68
2022-12-18T23:04:04.310Z,62
2022-12-18T23:06:33.419Z,64
2022-12-18T23:09:02.453Z,68
2022-12-18T23:11:31.757Z,66
2022-12-18T23:14:00.313Z,68
2022-12-18T23:16:29.432Z,70
2022-12-18T23:18:58.646Z,69
2022-12-18T23:21:27.528Z,68
2022-12-18T23:23:56.741Z,66
2022-12-18T23:26:25.805Z,64
2022-12-18T23:28:54.837Z,64
2022-12-18T23:31:24.030Z,66
2022-12-18T23:33:53.582Z,65
2022-12-18T23:36:22.757Z,60
2022-12-18T23:38:52.121Z,61
2022-12-18T23:41:21.563Z,56
2022-12-18T23:43:50.369Z,56
2022-12-18T23:46:19.775Z,52
2022-12-18T23:48:49.318Z,63
2022-12-18T23:51:18.755Z,56
2022-12-18T23:53:47.999Z,54
2022-12-18T23:56:17.310Z,49
2022-12-18T23:58:47.245Z,55
